Time;durP1;ratioP1;P1;durP2;ratioP2;P2;SDS_P1;SDS_P2;PMS_P1;PMS_P2;Temp;Humidity;BMP_temperature;BMP_pressure;BME280_temperature;BME280_humidity;BME280_pressure;Samples;Min_cycle;Max_cycle;Signal;HPM_P1;HPM_P2
2023/05/12 00:00:56;;;;;;;2.53;1.38;;;7.70;99.90;;;;;;5072993;28;20033;-71
2023/05/12 00:03:22;;;;;;;2.08;1.30;;;7.70;99.90;;;;;;5073778;28;20459;-71
2023/05/12 00:05:48;;;;;;;1.65;0.93;;;7.70;99.90;;;;;;5073277;28;20025;-70
2023/05/12 00:08:14;;;;;;;2.08;1.10;;;7.70;99.90;;;;;;5073206;28;20033;-71
2023/05/12 00:10:40;;;;;;;2.05;1.10;;;7.80;99.90;;;;;;5055122;28;20028;-70
2023/05/12 00:13:07;;;;;;;3.28;1.70;;;7.80;99.90;;;;;;5055209;28;20032;-71
2023/05/12 00:15:33;;;;;;;1.90;1.40;;;7.80;99.90;;;;;;5072960;28;20028;-71
2023/05/12 00:17:58;;;;;;;2.90;1.40;;;7.80;99.90;;;;;;5073037;28;20021;-71
2023/05/12 00:20:24;;;;;;;2.22;1.50;;;7.80;99.90;;;;;;5073052;28;20029;-71
2023/05/12 00:22:50;;;;;;;2.55;1.48;;;7.80;99.90;;;;;;5073381;28;20025;-70
2023/05/12 00:25:16;;;;;;;4.07;1.30;;;7.80;99.90;;;;;;5073057;28;20024;-70
2023/05/12 00:27:41;;;;;;;2.33;1.48;;;7.80;99.90;;;;;;5072994;28;20064;-71
2023/05/12 00:30:08;;;;;;;3.72;1.88;;;7.80;99.90;;;;;;5072643;28;20029;-71
2023/05/12 00:32:33;;;;;;;2.70;1.90;;;7.80;99.90;;;;;;5072967;28;20029;-71
2023/05/12 00:34:59;;;;;;;2.63;1.60;;;7.70;99.90;;;;;;5072962;28;20507;-71
2023/05/12 00:37:25;;;;;;;2.58;1.63;;;7.70;99.90;;;;;;5054964;28;20028;-71
2023/05/12 00:39:50;;;;;;;1.88;1.20;;;7.70;99.90;;;;;;5054838;28;20414;-71
2023/05/12 00:42:16;;;;;;;2.72;1.55;;;7.70;99.90;;;;;;5073161;28;20075;-71
2023/05/12 00:44:41;;;;;;;3.10;2.10;;;7.70;99.90;;;;;;5072826;28;20438;-71
2023/05/12 00:47:08;;;;;;;2.75;2.00;;;7.70;99.90;;;;;;5055296;28;20033;-71
2023/05/12 00:49:34;;;;;;;3.55;1.80;;;7.70;99.90;;;;;;5073878;28;20082;-71
2023/05/12 00:52:01;;;;;;;3.20;2.38;;;7.70;99.90;;;;;;5077100;28;20028;-71
2023/05/12 00:54:29;;;;;;;4.00;2.15;;;7.70;99.90;;;;;;5076498;28;20029;-71
2023/05/12 00:56:54;;;;;;;2.83;1.80;;;7.70;99.90;;;;;;5076446;28;20077;-71
2023/05/12 00:59:20;;;;;;;2.72;1.60;;;7.70;99.90;;;;;;5076043;28;20036;-71
2023/05/12 01:01:48;;;;;;;2.97;1.65;;;7.70;99.90;;;;;;5076563;28;20062;-71
2023/05/12 01:04:14;;;;;;;2.20;1.30;;;7.70;99.90;;;;;;5076350;28;20385;-71
2023/05/12 01:06:55;;;;;;;1.77;0.90;;;7.70;99.90;;;;;;5076615;28;20027;-70
2023/05/12 01:09:20;;;;;;;;;;;7.60;99.90;;;;;;5076766;28;20025;-73
2023/05/12 01:11:46;;;;;;;1.80;0.90;;;7.60;99.90;;;;;;5076152;28;19931;-73
2023/05/12 01:14:12;;;;;;;1.65;0.90;;;7.50;99.90;;;;;;5075938;28;20043;-73
2023/05/12 01:16:47;;;;;;;1.30;0.70;;;7.50;99.90;;;;;;5076128;28;20032;-71
2023/05/12 01:19:40;;;;;;;1.13;0.55;;;7.50;99.90;;;;;;5076051;28;20024;-71
2023/05/12 01:22:07;;;;;;;1.52;0.90;;;7.50;99.90;;;;;;5046056;28;20103;-70
2023/05/12 01:24:41;;;;;;;1.35;0.80;;;7.50;99.90;;;;;;5076023;28;20098;-71
2023/05/12 01:27:07;;;;;;;1.83;0.82;;;7.50;99.90;;;;;;5076019;28;20024;-71
2023/05/12 01:29:34;;;;;;;1.15;0.75;;;7.50;99.90;;;;;;5075448;28;20452;-71
2023/05/12 01:32:01;;;;;;;1.50;0.88;;;7.50;99.90;;;;;;5075861;28;20426;-71
2023/05/12 01:34:27;;;;;;;2.20;1.50;;;7.50;99.90;;;;;;5076109;28;20032;-71
2023/05/12 01:36:53;;;;;;;3.58;1.45;;;7.50;99.90;;;;;;5057764;28;20028;-70
2023/05/12 01:39:18;;;;;;;1.90;1.30;;;7.50;99.90;;;;;;5075664;28;20032;-71
2023/05/12 01:41:44;;;;;;;1.88;1.20;;;7.50;99.90;;;;;;5075603;28;20103;-71
2023/05/12 01:44:10;;;;;;;1.60;1.02;;;7.50;99.90;;;;;;5075379;28;20049;-71
2023/05/12 01:46:35;;;;;;;2.10;1.10;;;7.50;99.90;;;;;;5075606;28;20017;-71
2023/05/12 01:49:01;;;;;;;2.22;1.08;;;7.50;99.90;;;;;;5075496;28;20082;-71
2023/05/12 01:51:27;;;;;;;1.45;0.82;;;7.60;99.90;;;;;;5040943;28;20073;-71
2023/05/12 01:53:52;;;;;;;1.60;1.05;;;7.50;99.90;;;;;;5057620;28;20109;-70
2023/05/12 01:56:18;;;;;;;1.85;0.90;;;7.50;99.90;;;;;;5075418;28;20178;-71
2023/05/12 01:58:44;;;;;;;2.65;0.93;;;7.50;99.90;;;;;;5075087;28;20035;-71
2023/05/12 02:01:10;;;;;;;1.20;0.80;;;7.50;99.90;;;;;;5074501;28;20020;-71
2023/05/12 02:03:36;;;;;;;1.85;0.80;;;7.50;99.90;;;;;;5075549;28;20047;-71
2023/05/12 02:06:02;;;;;;;1.00;0.60;;;7.50;99.90;;;;;;5075244;28;20031;-71
2023/05/12 02:08:28;;;;;;;1.05;0.50;;;7.50;99.90;;;;;;5075161;28;20021;-71
2023/05/12 02:11:07;;;;;;;0.82;0.50;;;7.40;99.90;;;;;;5075076;28;20415;-71
2023/05/12 02:13:33;;;;;;;1.02;0.50;;;7.40;99.90;;;;;;5075347;28;20035;-71
2023/05/12 02:15:59;;;;;;;0.80;0.50;;;7.40;99.90;;;;;;5074814;28;20028;-71
2023/05/12 02:18:25;;;;;;;0.68;0.40;;;7.40;99.90;;;;;;5074975;28;20102;-71
2023/05/12 02:20:50;;;;;;;2.15;0.40;;;7.40;99.90;;;;;;5074862;28;20025;-71
2023/05/12 02:23:16;;;;;;;0.52;0.32;;;7.30;99.90;;;;;;5074908;28;20032;-70
2023/05/12 02:25:41;;;;;;;0.63;0.40;;;7.30;99.90;;;;;;5074827;28;20020;-71
2023/05/12 02:28:09;;;;;;;0.43;0.40;;;7.20;99.90;;;;;;5074847;28;20079;-71
2023/05/12 02:30:36;;;;;;;0.30;0.28;;;7.20;99.90;;;;;;5074422;28;20025;-71
2023/05/12 02:33:04;;;;;;;0.35;0.30;;;7.10;99.90;;;;;;5056736;28;20089;-71
2023/05/12 02:35:30;;;;;;;0.60;0.40;;;7.10;99.90;;;;;;5074614;28;20024;-71
2023/05/12 02:37:56;;;;;;;0.70;0.40;;;7.10;99.90;;;;;;5074797;28;20021;-71
2023/05/12 02:40:21;;;;;;;1.38;0.60;;;7.10;99.90;;;;;;5074710;28;20519;-71
2023/05/12 02:42:47;;;;;;;0.80;0.50;;;7.00;99.90;;;;;;5056909;28;20029;-70
2023/05/12 02:45:12;;;;;;;1.42;0.50;;;7.00;99.90;;;;;;5074243;28;20033;-71
2023/05/12 02:47:38;;;;;;;1.25;0.40;;;7.00;99.90;;;;;;5074961;28;20021;-71
2023/05/12 02:50:04;;;;;;;0.82;0.50;;;7.00;99.90;;;;;;5074263;28;20055;-70
2023/05/12 02:52:30;;;;;;;0.60;0.45;;;7.00;99.90;;;;;;5056390;28;20049;-71
2023/05/12 02:54:56;;;;;;;0.70;0.50;;;6.90;99.90;;;;;;5074178;28;20056;-71
2023/05/12 02:57:22;;;;;;;1.13;0.60;;;7.00;99.90;;;;;;5074270;28;20498;-71
2023/05/12 02:59:47;;;;;;;1.35;0.57;;;7.00;99.90;;;;;;5074069;28;20101;-71
2023/05/12 03:02:13;;;;;;;0.90;0.50;;;7.00;99.90;;;;;;5074394;28;20430;-71
2023/05/12 03:04:39;;;;;;;1.80;0.60;;;6.90;99.90;;;;;;5056284;28;20472;-71
2023/05/12 03:07:04;;;;;;;0.80;0.47;;;6.90;99.90;;;;;;5074026;28;20055;-71
2023/05/12 03:09:30;;;;;;;0.80;0.50;;;6.80;99.90;;;;;;5056278;28;20024;-71
2023/05/12 03:11:55;;;;;;;0.90;0.60;;;6.70;99.90;;;;;;5073140;28;20034;-71
2023/05/12 03:14:21;;;;;;;1.02;0.70;;;6.60;99.90;;;;;;5073635;28;20036;-72
2023/05/12 03:16:47;;;;;;;1.05;0.60;;;6.50;99.90;;;;;;5074108;28;20101;-71
2023/05/12 03:19:12;;;;;;;1.23;0.63;;;6.50;99.90;;;;;;5073762;28;20032;-70
2023/05/12 03:21:38;;;;;;;0.57;0.40;;;6.50;99.90;;;;;;5073721;28;20430;-71
2023/05/12 03:24:04;;;;;;;2.50;0.60;;;6.50;99.90;;;;;;5073778;28;20540;-71
2023/05/12 03:26:30;;;;;;;0.80;0.50;;;6.50;99.90;;;;;;5073968;28;20107;-71
2023/05/12 03:28:56;;;;;;;0.88;0.57;;;6.50;99.90;;;;;;5055959;28;20056;-71
2023/05/12 03:31:21;;;;;;;0.73;0.45;;;6.50;99.90;;;;;;5073302;28;20032;-71
2023/05/12 03:33:47;;;;;;;0.73;0.40;;;6.60;99.90;;;;;;5073638;28;20097;-71
2023/05/12 03:36:12;;;;;;;0.90;0.50;;;6.70;99.90;;;;;;5073505;28;20028;-71
2023/05/12 03:38:38;;;;;;;0.77;0.47;;;6.70;99.90;;;;;;5055521;28;20036;-71
2023/05/12 03:41:05;;;;;;;0.80;0.50;;;6.70;99.90;;;;;;5073662;28;20488;-71
2023/05/12 03:43:31;;;;;;;0.70;0.47;;;6.80;99.90;;;;;;5073499;28;20025;-71
2023/05/12 03:45:56;;;;;;;1.73;0.60;;;6.80;99.90;;;;;;5073167;28;20112;-71
2023/05/12 03:48:22;;;;;;;0.73;0.50;;;6.80;99.90;;;;;;5073395;28;20534;-71
2023/05/12 03:50:48;;;;;;;1.60;0.90;;;6.80;99.90;;;;;;5073443;28;20021;-71
2023/05/12 03:53:13;;;;;;;0.73;0.43;;;6.80;99.90;;;;;;5073674;28;20025;-71
2023/05/12 03:55:40;;;;;;;1.08;0.70;;;6.80;99.90;;;;;;5073340;28;20434;-71
2023/05/12 03:58:06;;;;;;;1.17;0.70;;;6.70;99.90;;;;;;5073075;28;20382;-71
2023/05/12 04:00:31;;;;;;;4.00;0.85;;;6.70;99.90;;;;;;5072954;28;20111;-71
2023/05/12 04:02:57;;;;;;;1.25;0.75;;;6.60;99.90;;;;;;5073288;28;20059;-72
2023/05/12 04:05:23;;;;;;;2.20;0.80;;;6.60;99.90;;;;;;5073836;28;20029;-72
2023/05/12 04:07:49;;;;;;;1.65;0.80;;;6.50;99.90;;;;;;5073242;28;20099;-72
2023/05/12 04:10:15;;;;;;;1.02;0.73;;;6.50;99.90;;;;;;5073275;28;20089;-72
2023/05/12 04:12:41;;;;;;;2.53;0.70;;;6.40;99.90;;;;;;5055475;28;20054;-72
2023/05/12 04:15:07;;;;;;;2.20;0.77;;;6.40;99.90;;;;;;5072678;28;20036;-72
2023/05/12 04:17:33;;;;;;;1.30;0.70;;;6.40;99.90;;;;;;5073261;28;20036;-72
2023/05/12 04:19:59;;;;;;;1.10;0.70;;;6.40;99.90;;;;;;5072998;28;20162;-72
2023/05/12 04:22:25;;;;;;;3.42;0.90;;;6.40;99.90;;;;;;5073102;28;20021;-72
2023/05/12 04:24:51;;;;;;;1.65;0.85;;;6.40;99.90;;;;;;5058513;28;20032;-72
2023/05/12 04:27:16;;;;;;;1.20;0.60;;;6.40;99.90;;;;;;5077094;28;20582;-72
2023/05/12 04:29:42;;;;;;;1.55;0.70;;;6.50;99.90;;;;;;5077001;28;20035;-72
2023/05/12 04:32:08;;;;;;;1.08;0.65;;;6.50;99.90;;;;;;5077006;28;20078;-72
2023/05/12 04:34:34;;;;;;;1.05;0.55;;;6.50;99.90;;;;;;5076937;28;20447;-72
2023/05/12 04:36:59;;;;;;;2.97;0.90;;;6.50;99.90;;;;;;5077144;28;20500;-72
2023/05/12 04:39:26;;;;;;;1.02;0.50;;;6.50;99.90;;;;;;5058612;28;20078;-73
2023/05/12 04:41:52;;;;;;;1.30;0.60;;;6.50;99.90;;;;;;5042290;28;20082;-72
2023/05/12 04:44:17;;;;;;;0.90;0.50;;;6.50;99.90;;;;;;5076790;28;20028;-73
2023/05/12 04:46:43;;;;;;;1.15;0.70;;;6.60;99.90;;;;;;5076539;28;20030;-72
2023/05/12 04:49:09;;;;;;;0.45;0.30;;;6.50;99.90;;;;;;5076026;28;20039;-72
2023/05/12 04:51:40;;;;;;;0.77;0.40;;;6.50;99.90;;;;;;5075454;28;20553;-72
2023/05/12 04:54:08;;;;;;;;;;;6.50;99.90;;;;;;5077132;28;20055;-72
2023/05/12 04:56:34;;;;;;;0.80;0.52;;;6.40;99.90;;;;;;5076554;28;19904;-73
2023/05/12 04:58:59;;;;;;;1.00;0.50;;;6.40;99.90;;;;;;5058408;28;20060;-72
2023/05/12 05:01:25;;;;;;;0.73;0.55;;;6.40;99.90;;;;;;5076249;28;20392;-72
2023/05/12 05:03:51;;;;;;;0.90;0.60;;;6.50;99.90;;;;;;5076813;28;20044;-73
2023/05/12 05:06:17;;;;;;;3.15;0.77;;;6.60;99.90;;;;;;5076416;28;20126;-72
2023/05/12 05:08:43;;;;;;;1.20;0.60;;;6.60;99.90;;;;;;5076469;28;20035;-72
2023/05/12 05:11:08;;;;;;;1.30;0.60;;;6.70;99.90;;;;;;5058439;28;20024;-72
2023/05/12 05:13:34;;;;;;;1.02;0.70;;;6.80;99.90;;;;;;5076229;28;20365;-72
2023/05/12 05:16:00;;;;;;;1.77;0.80;;;6.80;99.90;;;;;;5075964;28;20380;-73
2023/05/12 05:18:26;;;;;;;1.58;0.80;;;6.80;99.90;;;;;;5058461;28;20086;-73
2023/05/12 05:20:52;;;;;;;5.72;1.00;;;6.80;99.90;;;;;;5075477;28;20442;-73
2023/05/12 05:23:17;;;;;;;2.45;0.90;;;6.80;99.90;;;;;;5076019;28;20025;-75
2023/05/12 05:25:43;;;;;;;1.30;0.55;;;6.80;99.90;;;;;;5058482;28;20511;-73
2023/05/12 05:28:09;;;;;;;0.82;0.60;;;6.80;99.90;;;;;;5076113;28;20116;-73
2023/05/12 05:30:35;;;;;;;0.90;0.60;;;6.90;99.90;;;;;;5075715;28;20033;-75
2023/05/12 05:33:01;;;;;;;2.33;0.77;;;7.00;99.90;;;;;;5076063;28;20392;-75
2023/05/12 05:35:26;;;;;;;0.95;0.52;;;7.10;99.90;;;;;;5074934;28;20052;-75
2023/05/12 05:37:53;;;;;;;0.90;0.60;;;7.10;99.90;;;;;;5076026;28;20052;-75
2023/05/12 05:40:19;;;;;;;1.30;0.52;;;7.20;99.90;;;;;;5075666;28;20055;-75
2023/05/12 05:42:44;;;;;;;2.75;1.08;;;7.30;99.90;;;;;;5057793;28;20056;-75
2023/05/12 05:45:10;;;;;;;0.90;0.52;;;7.40;99.90;;;;;;5057646;28;20025;-75
2023/05/12 05:47:36;;;;;;;0.85;0.50;;;7.40;99.90;;;;;;5041049;28;20025;-75
2023/05/12 05:50:03;;;;;;;0.80;0.40;;;7.50;99.90;;;;;;5075499;28;20060;-76
2023/05/12 05:52:28;;;;;;;1.38;0.75;;;7.50;99.90;;;;;;5057751;28;20079;-73
2023/05/12 05:54:54;;;;;;;1.60;0.60;;;7.60;99.90;;;;;;5075477;28;20032;-73
2023/05/12 05:57:20;;;;;;;0.88;0.60;;;7.60;99.90;;;;;;5075246;28;20032;-73
2023/05/12 05:59:46;;;;;;;2.72;0.90;;;7.70;99.90;;;;;;5075254;28;20036;-73
2023/05/12 06:02:11;;;;;;;1.35;0.65;;;7.80;99.90;;;;;;5075065;28;20400;-73
2023/05/12 06:04:37;;;;;;;1.38;0.70;;;7.80;99.90;;;;;;5076067;28;20029;-73
2023/05/12 06:07:03;;;;;;;0.60;0.40;;;7.80;99.90;;;;;;5075207;28;20024;-73
2023/05/12 06:09:28;;;;;;;0.95;0.65;;;7.80;99.90;;;;;;5075102;28;20056;-73
2023/05/12 06:11:54;;;;;;;1.33;0.50;;;7.90;99.90;;;;;;5075157;28;20033;-73
2023/05/12 06:14:20;;;;;;;1.17;0.60;;;7.90;99.90;;;;;;5075105;28;20075;-73
2023/05/12 06:16:45;;;;;;;1.00;0.60;;;7.90;99.90;;;;;;5074780;28;20103;-73
2023/05/12 06:19:11;;;;;;;1.17;0.68;;;8.00;99.90;;;;;;5074938;28;20038;-73
2023/05/12 06:21:37;;;;;;;1.67;0.75;;;8.00;99.90;;;;;;5074848;28;20031;-73
2023/05/12 06:24:03;;;;;;;1.20;0.65;;;8.10;99.90;;;;;;5075197;28;20127;-73
2023/05/12 06:26:29;;;;;;;2.20;0.90;;;8.10;99.90;;;;;;5074848;28;20492;-73
2023/05/12 06:28:55;;;;;;;1.98;0.90;;;8.10;99.90;;;;;;5074757;28;20025;-73
2023/05/12 06:31:20;;;;;;;1.95;1.20;;;8.20;99.90;;;;;;5074438;28;20029;-73
2023/05/12 06:33:46;;;;;;;1.85;1.23;;;8.20;99.90;;;;;;5074691;28;20480;-73
2023/05/12 06:36:12;;;;;;;2.47;1.20;;;8.30;99.90;;;;;;5074598;28;20032;-73
2023/05/12 06:38:37;;;;;;;1.80;1.10;;;8.30;99.90;;;;;;5056640;28;20043;-73
2023/05/12 06:41:03;;;;;;;1.95;1.25;;;8.40;99.90;;;;;;5074532;28;20040;-73
2023/05/12 06:43:29;;;;;;;4.07;1.40;;;8.50;99.90;;;;;;5074552;28;20031;-73
2023/05/12 06:45:55;;;;;;;2.13;1.30;;;8.60;99.90;;;;;;5074115;28;20036;-74
2023/05/12 06:48:22;;;;;;;3.10;1.83;;;8.70;99.90;;;;;;5074396;28;20081;-73
2023/05/12 06:50:47;;;;;;;2.55;1.67;;;8.70;99.90;;;;;;5074293;28;20157;-73
2023/05/12 06:53:13;;;;;;;4.05;2.08;;;8.80;99.90;;;;;;5074282;28;20107;-73
2023/05/12 06:55:39;;;;;;;3.17;2.20;;;8.90;99.90;;;;;;5056847;28;20035;-74
2023/05/12 06:58:05;;;;;;;4.40;2.72;;;8.90;99.90;;;;;;5073983;28;20047;-76
2023/05/12 07:00:30;;;;;;;3.65;2.20;;;9.00;99.90;;;;;;5056166;28;20380;-76
2023/05/12 07:02:56;;;;;;;3.47;2.47;;;9.00;99.90;;;;;;5074305;28;20025;-75
2023/05/12 07:05:22;;;;;;;4.22;2.42;;;9.10;99.90;;;;;;5074068;28;20472;-76
2023/05/12 07:07:48;;;;;;;4.30;2.10;;;9.20;99.90;;;;;;5056988;28;20112;-73
2023/05/12 07:10:14;;;;;;;3.90;2.83;;;9.30;99.90;;;;;;5074136;28;20021;-73
2023/05/12 07:12:39;;;;;;;4.60;2.50;;;9.50;99.90;;;;;;5056059;28;20028;-73
2023/05/12 07:15:06;;;;;;;5.75;2.45;;;9.60;99.90;;;;;;5073707;28;20534;-73
2023/05/12 07:17:31;;;;;;;3.63;2.08;;;9.80;99.90;;;;;;5073911;28;20043;-73
2023/05/12 07:19:57;;;;;;;4.72;3.00;;;9.90;99.90;;;;;;5073579;28;20111;-73
2023/05/12 07:22:23;;;;;;;4.18;2.90;;;10.00;99.90;;;;;;5073794;28;20023;-74
2023/05/12 07:24:49;;;;;;;3.22;2.40;;;10.10;99.90;;;;;;5073759;28;20021;-74
2023/05/12 07:27:15;;;;;;;2.97;2.13;;;10.10;99.90;;;;;;5073752;28;20028;-73
2023/05/12 07:29:40;;;;;;;3.50;2.35;;;10.20;99.90;;;;;;5073599;28;20507;-74
2023/05/12 07:32:06;;;;;;;4.07;2.45;;;10.30;99.90;;;;;;5073409;28;20481;-73
2023/05/12 07:34:32;;;;;;;4.13;2.85;;;10.50;99.90;;;;;;5073618;28;20445;-73
2023/05/12 07:37:01;;;;;;;4.95;3.30;;;10.60;99.90;;;;;;5074132;28;20027;-74
2023/05/12 07:39:27;;;;;;;5.78;3.00;;;10.80;99.90;;;;;;5073390;28;20039;-74
2023/05/12 07:41:54;;;;;;;4.47;3.10;;;10.90;99.90;;;;;;5073590;28;20035;-74
2023/05/12 07:44:20;;;;;;;4.45;2.95;;;10.90;99.90;;;;;;5073482;28;20021;-74
2023/05/12 07:46:45;;;;;;;4.05;2.70;;;11.10;99.90;;;;;;5073225;28;20025;-73
2023/05/12 07:49:11;;;;;;;3.45;2.55;;;11.20;99.90;;;;;;5073452;28;20036;-74
2023/05/12 07:51:38;;;;;;;4.78;3.42;;;11.30;99.90;;;;;;5055562;28;20103;-74
2023/05/12 07:54:03;;;;;;;4.80;3.25;;;11.40;99.90;;;;;;5056260;28;20413;-74
2023/05/12 07:56:29;;;;;;;4.10;2.72;;;11.50;99.90;;;;;;5073465;28;20101;-74
2023/05/12 07:58:55;;;;;;;4.90;3.42;;;11.60;99.90;;;;;;5072654;28;20044;-74
2023/05/12 08:01:21;;;;;;;4.28;3.00;;;11.60;99.90;;;;;;5072987;28;20021;-74
2023/05/12 08:03:47;;;;;;;5.45;3.30;;;11.80;99.90;;;;;;5055357;28;20059;-74
2023/05/12 08:06:12;;;;;;;6.15;3.35;;;11.90;99.90;;;;;;5073248;28;20388;-74
2023/05/12 08:08:38;;;;;;;4.90;3.22;;;12.00;99.90;;;;;;5073271;28;20029;-74
2023/05/12 08:11:04;;;;;;;4.90;3.45;;;12.10;99.90;;;;;;5073193;28;20059;-74
2023/05/12 08:13:30;;;;;;;6.20;3.67;;;12.10;99.90;;;;;;5073376;28;20068;-74
2023/05/12 08:15:56;;;;;;;4.68;3.28;;;12.10;99.90;;;;;;5073128;28;20163;-74
2023/05/12 08:18:21;;;;;;;6.60;4.43;;;12.20;99.90;;;;;;5055296;28;20036;-74
2023/05/12 08:20:48;;;;;;;5.03;3.60;;;12.30;99.90;;;;;;5073376;28;20027;-74
2023/05/12 08:23:16;;;;;;;5.80;3.47;;;12.50;99.90;;;;;;5073273;28;20421;-74
2023/05/12 08:25:43;;;;;;;5.13;3.17;;;12.50;99.90;;;;;;5073088;28;20028;-74
2023/05/12 08:28:09;;;;;;;4.38;3.47;;;12.60;99.90;;;;;;5073043;28;20017;-74
2023/05/12 08:30:36;;;;;;;6.22;4.00;;;12.70;99.90;;;;;;5072773;28;20491;-73
2023/05/12 08:33:03;;;;;;;4.15;3.17;;;12.80;99.90;;;;;;5073047;28;20154;-74
2023/05/12 08:35:29;;;;;;;6.60;3.20;;;12.60;99.90;;;;;;5073325;28;20401;-75
2023/05/12 08:37:56;;;;;;;4.78;3.28;;;12.50;99.90;;;;;;5073554;28;20484;-75
2023/05/12 08:40:23;;;;;;;5.93;2.80;;;12.50;99.90;;;;;;5073340;28;20032;-74
2023/05/12 08:43:07;;;;;;;4.95;3.50;;;12.50;99.90;;;;;;5072961;28;20025;-75
2023/05/12 08:45:37;;;;;;;4.50;3.28;;;12.50;99.90;;;;;;5072709;28;20036;-73
2023/05/12 08:48:07;;;;;;;5.82;2.65;;;12.50;99.90;;;;;;5072852;28;20027;-74
2023/05/12 08:50:35;;;;;;;3.57;2.57;;;12.40;99.90;;;;;;5072857;28;20028;-75
2023/05/12 08:53:03;;;;;;;3.80;2.78;;;12.50;99.90;;;;;;5054900;28;20024;-74
2023/05/12 08:55:29;;;;;;;4.97;2.75;;;12.50;99.90;;;;;;5072806;28;20021;-74
2023/05/12 08:57:55;;;;;;;3.42;2.60;;;12.60;99.90;;;;;;5072582;28;20119;-74
2023/05/12 09:00:24;;;;;;;7.45;2.72;;;12.60;99.90;;;;;;5072611;28;20481;-74
2023/05/12 09:02:51;;;;;;;3.92;2.67;;;12.70;99.90;;;;;;5072487;28;20108;-74
2023/05/12 09:05:17;;;;;;;4.32;3.08;;;12.60;99.90;;;;;;5072755;28;20119;-75
2023/05/12 09:07:43;;;;;;;3.30;2.50;;;12.70;99.90;;;;;;5072709;28;20437;-75
2023/05/12 09:10:20;;;;;;;5.85;2.53;;;12.70;99.90;;;;;;5073169;28;20396;-75
2023/05/12 09:12:46;;;;;;;4.32;2.75;;;12.80;99.90;;;;;;5076296;28;20020;-75
2023/05/12 09:15:18;;;;;;;3.97;3.17;;;12.90;99.90;;;;;;5076182;28;20392;-74
2023/05/12 09:17:44;;;;;;;4.03;3.00;;;12.90;99.90;;;;;;5075989;28;20025;-74
2023/05/12 09:20:11;;;;;;;3.83;2.78;;;12.90;99.90;;;;;;5076519;28;20037;-74
2023/05/12 09:22:38;;;;;;;3.92;2.55;;;13.00;99.90;;;;;;5076121;28;20020;-75
2023/05/12 09:25:20;;;;;;;3.55;2.58;;;13.10;99.90;;;;;;5076337;28;20381;-75
2023/05/12 09:27:48;;;;;;;3.88;2.50;;;13.20;99.90;;;;;;5075963;28;20025;-74
2023/05/12 09:30:14;;;;;;;4.57;2.55;;;13.30;99.90;;;;;;5076080;28;20043;-75
2023/05/12 09:32:40;;;;;;;2.08;1.27;;;13.40;99.90;;;;;;5075715;28;20029;-75
2023/05/12 09:35:11;;;;;;;2.03;1.10;;;13.40;99.90;;;;;;5075903;28;20385;-74
2023/05/12 09:37:37;;;;;;;;;;;13.50;99.90;;;;;;5076612;28;20112;-75
2023/05/12 09:40:06;;;;;;;1.60;1.08;;;13.50;99.90;;;;;;5075673;28;20514;-75
2023/05/12 09:42:33;;;;;;;1.80;1.00;;;13.60;99.90;;;;;;5076026;28;20488;-75
2023/05/12 09:45:03;;;;;;;1.73;1.08;;;13.50;99.90;;;;;;5075693;28;20025;-75
2023/05/12 09:47:36;;;;;;;1.63;0.90;;;13.60;99.90;;;;;;5057459;28;20107;-74
2023/05/12 09:50:03;;;;;;;1.95;0.98;;;13.60;99.90;;;;;;5057696;28;20059;-74
2023/05/12 09:52:38;;;;;;;1.55;1.10;;;13.60;99.90;;;;;;5075576;28;20028;-75
2023/05/12 09:55:11;;;;;;;1.20;0.85;;;13.60;99.90;;;;;;5075492;28;20032;-74
2023/05/12 09:57:44;;;;;;;1.30;0.60;;;13.70;99.90;;;;;;5075249;28;20035;-74
2023/05/12 10:00:13;;;;;;;2.13;0.73;;;13.80;99.90;;;;;;5075297;28;20111;-74
2023/05/12 10:02:43;;;;;;;0.80;0.57;;;13.80;99.90;;;;;;5075085;28;20425;-74
2023/05/12 10:05:21;;;;;;;1.20;0.70;;;13.90;99.90;;;;;;5058279;28;20112;-75
2023/05/12 10:07:56;;;;;;;1.05;0.60;;;14.00;99.90;;;;;;5075602;28;20032;-74
2023/05/12 10:10:25;;;;;;;1.30;0.80;;;14.00;99.90;;;;;;5075349;28;20052;-74
2023/05/12 10:12:51;;;;;;;0.65;0.43;;;13.90;99.90;;;;;;5057695;28;20477;-75
2023/05/12 10:15:19;;;;;;;0.80;0.50;;;14.00;99.90;;;;;;5057198;28;20083;-74
2023/05/12 10:17:45;;;;;;;0.90;0.50;;;14.00;99.90;;;;;;5056943;28;20021;-74
2023/05/12 10:20:12;;;;;;;0.65;0.32;;;14.00;99.90;;;;;;5074890;28;20074;-74
2023/05/12 10:22:39;;;;;;;0.68;0.40;;;14.00;99.90;;;;;;5074632;28;20060;-74
2023/05/12 10:25:09;;;;;;;0.80;0.50;;;14.10;99.90;;;;;;5074948;28;20025;-74
2023/05/12 10:27:36;;;;;;;0.60;0.40;;;14.10;99.90;;;;;;5075292;28;20559;-75
2023/05/12 10:30:03;;;;;;;0.90;0.50;;;14.10;99.90;;;;;;5074777;28;20582;-74
2023/05/12 10:32:29;;;;;;;1.35;0.65;;;14.20;99.90;;;;;;5074630;28;20029;-74
2023/05/12 10:35:05;;;;;;;0.65;0.43;;;14.20;99.90;;;;;;5074749;28;20092;-75
2023/05/12 10:37:34;;;;;;;0.65;0.50;;;14.20;99.90;;;;;;5074790;28;20032;-75
2023/05/12 10:40:03;;;;;;;1.08;0.60;;;14.20;99.90;;;;;;5074718;28;20020;-74
2023/05/12 10:42:40;;;;;;;1.38;0.50;;;14.20;99.90;;;;;;5074562;28;20021;-74
2023/05/12 10:45:16;;;;;;;1.33;0.77;;;14.20;99.90;;;;;;5074538;28;20028;-75
2023/05/12 10:47:42;;;;;;;0.80;0.50;;;14.20;99.90;;;;;;5074210;28;20120;-74
2023/05/12 10:50:09;;;;;;;0.98;0.40;;;14.30;99.90;;;;;;5074393;28;20067;-75
2023/05/12 10:52:34;;;;;;;0.55;0.40;;;14.30;99.90;;;;;;5074380;28;20024;-74
2023/05/12 10:55:01;;;;;;;2.88;0.63;;;14.30;99.90;;;;;;5074316;28;20024;-75
2023/05/12 10:57:27;;;;;;;1.40;0.90;;;14.30;99.90;;;;;;5056654;28;20052;-74
2023/05/12 10:59:57;;;;;;;1.83;0.80;;;14.40;99.90;;;;;;5074126;28;20020;-74
2023/05/12 11:02:28;;;;;;;1.13;0.70;;;14.50;99.90;;;;;;5073874;28;20021;-74
2023/05/12 11:04:59;;;;;;;3.05;0.73;;;14.50;99.90;;;;;;5073905;28;20480;-74
2023/05/12 11:07:32;;;;;;;1.85;0.70;;;14.60;99.90;;;;;;5074344;28;20028;-74
2023/05/12 11:10:04;;;;;;;0.93;0.68;;;14.60;99.90;;;;;;5074125;28;20029;-74
2023/05/12 11:12:31;;;;;;;1.02;0.60;;;14.60;99.90;;;;;;5074066;28;20405;-74
2023/05/12 11:15:02;;;;;;;1.40;0.80;;;14.60;99.90;;;;;;5073911;28;20481;-75
2023/05/12 11:17:29;;;;;;;1.25;0.68;;;14.70;99.90;;;;;;5073634;28;20043;-74
2023/05/12 11:19:55;;;;;;;1.10;0.70;;;14.70;99.90;;;;;;5073272;28;20043;-74
2023/05/12 11:22:22;;;;;;;1.08;0.65;;;14.70;99.90;;;;;;5073709;28;20028;-75
2023/05/12 11:24:48;;;;;;;0.85;0.65;;;14.70;99.90;;;;;;5073769;28;20095;-75
2023/05/12 11:27:16;;;;;;;0.95;0.60;;;14.70;99.90;;;;;;5072611;28;20017;-74
2023/05/12 11:29:45;;;;;;;0.60;0.40;;;14.80;99.90;;;;;;5053712;28;20041;-75
2023/05/12 11:32:11;;;;;;;0.70;0.50;;;14.70;99.90;;;;;;5053372;28;20051;-74
2023/05/12 11:34:37;;;;;;;0.75;0.50;;;14.80;99.90;;;;;;5053119;28;20441;-75
2023/05/12 11:37:06;;;;;;;0.77;0.40;;;14.80;99.90;;;;;;5053757;28;20041;-75
2023/05/12 11:39:32;;;;;;;2.03;0.50;;;14.80;99.90;;;;;;5053627;28;20388;-74
2023/05/12 11:42:03;;;;;;;0.73;0.50;;;14.80;99.90;;;;;;5035679;28;20559;-75
2023/05/12 11:44:29;;;;;;;1.05;0.68;;;14.80;99.90;;;;;;5053545;28;20096;-75
2023/05/12 11:47:11;;;;;;;0.50;0.40;;;14.90;99.90;;;;;;5053257;28;20079;-74
2023/05/12 11:49:53;;;;;;;0.70;0.43;;;14.90;99.90;;;;;;5053600;28;20033;-74
2023/05/12 11:52:22;;;;;;;0.77;0.50;;;15.00;99.90;;;;;;5053710;28;20112;-75
2023/05/12 11:54:55;;;;;;;1.70;0.70;;;14.90;99.90;;;;;;5053340;28;20059;-75
2023/05/12 11:57:26;;;;;;;1.30;0.57;;;14.90;99.90;;;;;;5054136;28;20025;-74
2023/05/12 12:00:02;;;;;;;0.98;0.60;;;14.90;99.90;;;;;;5073427;28;20021;-74
2023/05/12 12:02:28;;;;;;;0.65;0.50;;;14.80;99.90;;;;;;5073055;28;20025;-74
2023/05/12 12:04:53;;;;;;;0.95;0.55;;;14.80;99.90;;;;;;5073779;28;20100;-75
2023/05/12 12:07:33;;;;;;;0.82;0.50;;;14.70;99.90;;;;;;5073216;28;20049;-75
2023/05/12 12:10:13;;;;;;;0.43;0.30;;;14.70;99.90;;;;;;5073254;28;20029;-74
2023/05/12 12:12:40;;;;;;;2.95;1.00;;;14.70;99.90;;;;;;5073541;28;20086;-75
2023/05/12 12:15:06;;;;;;;0.88;0.50;;;14.80;99.90;;;;;;5073475;28;20032;-75
2023/05/12 12:17:32;;;;;;;1.48;0.47;;;14.90;99.90;;;;;;5073051;28;20107;-74
2023/05/12 12:19:58;;;;;;;0.95;0.47;;;14.90;99.90;;;;;;5073262;28;20059;-75
2023/05/12 12:22:23;;;;;;;0.57;0.32;;;15.00;99.90;;;;;;5073185;28;20017;-75
2023/05/12 12:24:49;;;;;;;1.05;0.47;;;15.10;99.90;;;;;;5073108;28;20025;-75
2023/05/12 12:27:15;;;;;;;1.05;0.50;;;15.10;99.90;;;;;;5073190;28;20151;-75
2023/05/12 12:29:40;;;;;;;0.90;0.50;;;15.20;99.90;;;;;;5054979;28;20028;-74
2023/05/12 12:32:07;;;;;;;0.70;0.50;;;15.30;99.90;;;;;;5072950;28;20370;-74
2023/05/12 12:34:33;;;;;;;0.65;0.40;;;15.20;99.90;;;;;;5072991;28;20028;-75
2023/05/12 12:36:59;;;;;;;0.85;0.40;;;15.20;99.90;;;;;;5072998;28;20028;-75
2023/05/12 12:39:25;;;;;;;1.08;0.55;;;15.10;99.90;;;;;;5073030;28;20028;-75
2023/05/12 12:41:50;;;;;;;0.40;0.30;;;15.00;99.90;;;;;;5055428;28;20104;-75
2023/05/12 12:44:16;;;;;;;0.70;0.50;;;15.00;99.90;;;;;;5073944;28;20431;-75
2023/05/12 12:46:42;;;;;;;0.73;0.30;;;14.90;99.90;;;;;;5076502;28;20024;-74
2023/05/12 12:49:08;;;;;;;1.48;0.45;;;14.90;99.90;;;;;;5076742;28;20116;-75
2023/05/12 12:51:35;;;;;;;2.75;0.50;;;14.90;99.70;;;;;;5058941;28;20449;-75